Mid Delta Regional Airport
KGLH : rendu visible

Aérodrome :











RETROUVEZ-NOUS SUR...

 
LOGIN :

S'inscrire | Disclaimer

   EN    FR    IT 

 









Légende :    VFR   VFR Marginal   IFR   IFR Intensif   IFR Très Intensif
Visi : 
Plafond : 
>= 8 km
>= 3000ft
5 à 8 km
1000 à 3000 ft
1500m à 5 km
500 à 1000 ft
800 à 1500m
200 à 500 ft
< 800m
< 200 ft
Symboles :   Orages  Brouillard  Fortes neiges  Fortes précipitations  Vent > 20 kt






- Altitude de l'aérodrome : 131 ft
- Code IATA : GLH


KGLH - Mid Delta Regional

DERNIER METAR :
  • 121253Z 28005KT 10SM CLR 30/26 A2986 RMK AO2 SLP117 T03000256

METARs EXPIRÉS :
  • 121153Z 22005KT 9SM CLR 28/26 A2988 RMK AO2 SLP121 T02780256 10283 20272 55005
  • 121053Z AUTO 22007KT 10SM CLR 28/26 A2986 RMK AO2 SLP116 T02830256

TAF KGLH
Valide du 12 à 12h jusqu'au 13 à 12h UTC


121120Z 1212/1312 23006KT P6SM BKN050
FM121500 29008KT P6SM VCTS BKN040CB
FM122200 27007KT P6SM SCT250
FIR KZME / Amérique du Nord



MET'MAP, la Météo Aéronautique d'un coup d'oeil ! - Copyright ORBIFLY Décembre 2007 - Disclaimer

ORBIFLY MET'MAP TEAM :

Programmation & Développement : Alexandra Zaïnal
Sur une idée originale de : Baudouin d'Aumeries
Assistance à la programmation : Marc-Olivier Méhu
Soutien technique & logistique : Manuel Goepfert

Contact : metmap@orbifly.com




SOURCES & CREDITS :

   NOAA       Earth
Advisory